createdAt,value
2022-08-26T00:02:11.236Z,78.15
2022-08-26T00:04:38.544Z,79.22
2022-08-26T00:07:06.301Z,79.24
2022-08-26T00:09:33.938Z,79.08
2022-08-26T00:12:07.777Z,79.53
2022-08-26T00:14:36.735Z,80.16
2022-08-26T00:17:04.650Z,80.39
2022-08-26T00:19:32.649Z,80.51
2022-08-26T00:21:59.907Z,80.58
2022-08-26T00:24:27.225Z,80.69
2022-08-26T00:26:54.709Z,81.03
2022-08-26T00:29:22.403Z,80.80
2022-08-26T00:31:50.315Z,81.39
2022-08-26T00:34:19.313Z,80.85
2022-08-26T00:36:49.293Z,81.51
2022-08-26T00:39:20.943Z,81.62
2022-08-26T00:41:48.989Z,81.57
2022-08-26T00:44:17.445Z,82.36
2022-08-26T00:47:20.238Z,82.93
2022-08-26T00:49:51.481Z,83.41
2022-08-26T00:52:23.079Z,82.46
2022-08-26T00:55:00.681Z,82.79
2022-08-26T00:57:28.835Z,83.29
2022-08-26T01:00:01.413Z,83.17
2022-08-26T01:02:29.701Z,83.06
2022-08-26T01:05:01.461Z,83.66
2022-08-26T01:07:34.750Z,83.37
2022-08-26T01:10:08.571Z,84.60
2022-08-26T01:12:44.967Z,84.09
2022-08-26T01:15:20.838Z,84.83
2022-08-26T01:17:49.926Z,85.47
2022-08-26T01:20:38.119Z,84.76
2022-08-26T01:23:09.872Z,84.53
2022-08-26T01:25:46.677Z,84.30
2022-08-26T01:28:36.863Z,84.42
2022-08-26T01:31:09.838Z,84.59
2022-08-26T01:33:55.116Z,84.47
2022-08-26T01:36:23.893Z,85.40
2022-08-26T01:38:51.901Z,85.31
2022-08-26T01:41:27.221Z,85.27
2022-08-26T01:43:58.008Z,85.16
2022-08-26T01:46:30.164Z,85.56
2022-08-26T01:49:03.180Z,85.82
2022-08-26T01:51:37.625Z,86.24
2022-08-26T01:54:11.794Z,85.88
2022-08-26T01:56:39.892Z,86.42
2022-08-26T01:59:13.817Z,86.14
2022-08-26T02:01:41.270Z,86.14
2022-08-26T02:04:21.525Z,85.44
2022-08-26T02:06:49.349Z,84.87
2022-08-26T02:09:19.898Z,84.43
2022-08-26T02:11:48.716Z,84.27
2022-08-26T02:14:26.898Z,84.99
2022-08-26T02:16:56.268Z,85.03
2022-08-26T02:19:30.784Z,85.44
2022-08-26T02:22:04.237Z,86.06
2022-08-26T02:24:54.853Z,85.96
2022-08-26T02:27:28.148Z,85.91
2022-08-26T02:30:11.931Z,86.02
2022-08-26T02:32:40.184Z,85.39
2022-08-26T02:35:12.883Z,85.47
2022-08-26T02:37:41.885Z,85.12
2022-08-26T02:40:14.375Z,84.44
2022-08-26T02:42:42.339Z,84.46
2022-08-26T02:45:10.999Z,84.06
2022-08-26T02:47:39.359Z,84.17
2022-08-26T02:50:07.602Z,84.31
2022-08-26T02:52:35.369Z,83.95
2022-08-26T02:55:03.833Z,83.83
2022-08-26T02:57:31.393Z,83.88
2022-08-26T03:00:01.359Z,84.50
2022-08-26T03:02:29.391Z,84.13
2022-08-26T03:04:58.033Z,83.72
2022-08-26T03:07:29.877Z,83.76
2022-08-26T03:09:58.858Z,84.28
2022-08-26T03:12:26.489Z,84.73
2022-08-26T03:14:53.964Z,84.16
2022-08-26T03:17:21.491Z,84.11
2022-08-26T03:19:51.832Z,84.38
2022-08-26T03:22:22.063Z,84.67
2022-08-26T03:24:50.377Z,83.67
2022-08-26T03:27:18.301Z,84.53
2022-08-26T03:30:04.334Z,85.14
2022-08-26T03:32:32.072Z,84.38
2022-08-26T03:34:59.760Z,84.47
2022-08-26T03:37:27.273Z,83.87
2022-08-26T03:39:55.157Z,84.13
2022-08-26T03:42:22.504Z,83.85
2022-08-26T03:44:51.587Z,83.85
2022-08-26T03:47:19.474Z,83.71
2022-08-26T03:49:46.828Z,83.92
2022-08-26T03:52:14.508Z,83.65
2022-08-26T03:54:42.008Z,83.55
2022-08-26T03:57:10.848Z,83.43
2022-08-26T03:59:38.081Z,83.47
2022-08-26T04:02:11.608Z,83.33
2022-08-26T04:04:40.334Z,83.32
2022-08-26T04:07:07.678Z,83.35
2022-08-26T04:09:35.706Z,83.28
2022-08-26T04:12:04.101Z,82.89
2022-08-26T04:14:32.585Z,82.62
2022-08-26T04:17:00.130Z,83.06
2022-08-26T04:19:27.371Z,82.55
2022-08-26T04:21:54.743Z,82.71
2022-08-26T04:24:25.985Z,82.62
2022-08-26T04:26:56.647Z,82.21
2022-08-26T04:29:26.876Z,82.17
2022-08-26T04:31:56.167Z,82.07
2022-08-26T04:34:28.455Z,81.69
2022-08-26T04:36:57.932Z,81.52
2022-08-26T04:39:25.673Z,81.44
2022-08-26T04:41:55.718Z,81.55
2022-08-26T04:44:29.301Z,81.38
2022-08-26T04:46:58.614Z,81.32
2022-08-26T04:49:27.521Z,81.33
2022-08-26T04:51:55.220Z,80.98
2022-08-26T04:54:23.284Z,80.49
2022-08-26T04:56:52.873Z,80.49
2022-08-26T04:59:20.531Z,80.63
2022-08-26T05:01:52.598Z,80.55
2022-08-26T05:04:21.306Z,80.07
2022-08-26T05:06:50.655Z,79.99
2022-08-26T05:09:20.283Z,79.92
2022-08-26T05:11:52.192Z,79.71
2022-08-26T05:14:23.326Z,79.30
2022-08-26T05:16:51.304Z,78.87
2022-08-26T05:19:19.472Z,78.85
2022-08-26T05:21:48.775Z,78.46
2022-08-26T05:24:18.023Z,78.48
2022-08-26T05:26:47.314Z,78.60
2022-08-26T05:29:17.034Z,78.08
2022-08-26T05:31:44.474Z,77.99
2022-08-26T05:34:12.729Z,78.03
2022-08-26T05:36:40.315Z,77.92
2022-08-26T05:39:10.352Z,77.79
2022-08-26T05:41:41.579Z,77.17
2022-08-26T05:44:14.010Z,77.10
2022-08-26T05:46:42.590Z,76.96
2022-08-26T05:49:14.610Z,76.76
2022-08-26T05:51:47.644Z,76.43
2022-08-26T05:54:21.263Z,76.24
2022-08-26T05:56:51.828Z,75.98
2022-08-26T05:59:24.323Z,75.84
2022-08-26T06:01:54.858Z,75.54
2022-08-26T06:04:27.539Z,75.00
2022-08-26T06:06:58.100Z,74.71
2022-08-26T06:09:30.835Z,74.21
2022-08-26T06:11:58.961Z,74.36
2022-08-26T06:14:26.411Z,73.85
2022-08-26T06:16:53.704Z,73.22
2022-08-26T06:19:22.070Z,73.16
2022-08-26T06:21:54.684Z,72.64
2022-08-26T06:24:41.384Z,71.93
2022-08-26T06:27:13.661Z,70.89
2022-08-26T06:29:41.935Z,69.00
2022-08-26T06:32:09.384Z,65.26
2022-08-26T06:34:36.928Z,63.71
2022-08-26T06:37:06.437Z,60.48
2022-08-26T06:39:34.314Z,55.03
2022-08-26T06:42:03.262Z,50.65
2022-08-26T06:44:33.729Z,48.19
2022-08-26T06:47:01.195Z,45.69
2022-08-26T06:49:28.777Z,44.35
2022-08-26T06:52:00.143Z,42.08
2022-08-26T06:54:31.816Z,39.91
2022-08-26T06:56:59.787Z,38.62
2022-08-26T06:59:27.394Z,37.02
2022-08-26T07:01:55.236Z,35.43
2022-08-26T07:04:24.708Z,34.27
2022-08-26T07:06:53.731Z,33.24
2022-08-26T07:09:25.533Z,31.96
2022-08-26T07:11:56.295Z,31.15
2022-08-26T07:14:26.212Z,31.57
2022-08-26T07:16:54.271Z,34.49
2022-08-26T07:19:30.464Z,37.91
2022-08-26T07:22:04.872Z,39.06
2022-08-26T07:24:40.368Z,40.58
2022-08-26T07:27:15.131Z,41.13
2022-08-26T07:29:43.776Z,41.15
2022-08-26T07:32:15.201Z,41.24
2022-08-26T07:34:43.732Z,42.31
2022-08-26T07:37:11.817Z,41.59
2022-08-26T07:39:41.746Z,41.57
2022-08-26T07:42:14.243Z,40.61
2022-08-26T07:44:43.883Z,38.62
2022-08-26T07:47:25.494Z,37.09
2022-08-26T07:49:57.661Z,34.43
2022-08-26T07:52:28.908Z,30.19
2022-08-26T07:55:00.368Z,27.97
2022-08-26T07:57:29.421Z,26.26
2022-08-26T07:59:57.726Z,23.65
2022-08-26T08:02:28.532Z,21.92
2022-08-26T08:04:57.910Z,20.67
2022-08-26T08:07:44.722Z,19.75
2022-08-26T08:10:18.851Z,18.12
2022-08-26T08:12:50.485Z,17.77
2022-08-26T08:15:24.999Z,17.15
2022-08-26T08:17:54.049Z,15.53
2022-08-26T08:20:23.975Z,15.11
2022-08-26T08:22:53.515Z,14.97
2022-08-26T08:25:22.380Z,13.59
2022-08-26T08:27:50.186Z,13.06
2022-08-26T08:30:23.072Z,13.25
2022-08-26T08:32:52.472Z,13.05
2022-08-26T08:35:22.667Z,12.96
2022-08-26T08:37:54.463Z,12.44
2022-08-26T08:40:26.364Z,12.07
2022-08-26T08:43:07.267Z,11.99
2022-08-26T08:45:52.735Z,11.51
2022-08-26T08:48:27.350Z,11.34
2022-08-26T08:51:41.499Z,11.07
2022-08-26T08:54:10.502Z,10.76
2022-08-26T08:56:53.373Z,9.94
2022-08-26T08:59:34.420Z,9.53
2022-08-26T09:02:25.810Z,8.90
2022-08-26T09:05:40.232Z,8.73
2022-08-26T09:08:32.763Z,8.96
2022-08-26T09:11:03.864Z,8.46
2022-08-26T09:13:32.004Z,8.58
2022-08-26T09:16:24.491Z,8.43
2022-08-26T09:19:30.325Z,8.42
2022-08-26T09:22:02.236Z,7.61
2022-08-26T09:24:42.038Z,7.61
2022-08-26T09:27:41.397Z,7.47
2022-08-26T09:30:25.405Z,7.05
2022-08-26T09:33:10.928Z,6.63
2022-08-26T09:35:47.643Z,6.90
2022-08-26T09:38:34.619Z,7.25
2022-08-26T09:41:08.858Z,6.94
2022-08-26T09:43:36.747Z,6.52
2022-08-26T09:46:28.176Z,5.97
2022-08-26T09:48:56.234Z,6.05
2022-08-26T09:51:42.034Z,5.84
2022-08-26T09:54:30.171Z,6.00
2022-08-26T09:57:26.070Z,5.76
2022-08-26T09:59:53.952Z,6.16
2022-08-26T10:02:33.791Z,5.49
2022-08-26T10:05:09.334Z,5.25
2022-08-26T10:07:51.379Z,5.82
2022-08-26T10:10:22.209Z,5.07
2022-08-26T10:13:23.574Z,5.38
2022-08-26T10:16:21.202Z,4.78
2022-08-26T10:19:13.457Z,4.69
2022-08-26T10:22:00.241Z,4.62
2022-08-26T10:24:44.008Z,4.72
2022-08-26T10:27:44.559Z,4.45
2022-08-26T10:30:23.868Z,4.17
2022-08-26T10:33:00.859Z,4.21
2022-08-26T10:35:30.971Z,4.47
2022-08-26T10:38:08.218Z,4.64
2022-08-26T10:41:20.694Z,4.62
2022-08-26T10:43:59.343Z,4.43
2022-08-26T10:46:55.680Z,4.14
2022-08-26T10:49:23.052Z,4.20
2022-08-26T10:52:16.412Z,3.76
2022-08-26T10:54:59.788Z,3.37
2022-08-26T10:57:55.661Z,3.61
2022-08-26T11:00:51.580Z,4.06
2022-08-26T11:03:40.345Z,3.52
2022-08-26T11:06:23.483Z,3.66
2022-08-26T11:08:57.912Z,3.83
2022-08-26T11:11:42.123Z,3.21
2022-08-26T11:14:16.444Z,3.61
2022-08-26T11:16:57.630Z,3.61
2022-08-26T11:19:59.542Z,3.91
2022-08-26T11:22:47.598Z,3.72
2022-08-26T11:25:18.448Z,4.31
2022-08-26T11:27:49.946Z,4.27
2022-08-26T11:30:18.564Z,4.01
2022-08-26T11:32:59.254Z,4.12
2022-08-26T11:35:27.198Z,4.06
2022-08-26T11:37:59.135Z,4.18
2022-08-26T11:40:38.629Z,3.94
2022-08-26T11:43:23.212Z,3.94
2022-08-26T11:46:07.859Z,3.79
2022-08-26T11:48:41.493Z,4.65
2022-08-26T11:51:10.352Z,4.25
2022-08-26T11:53:42.718Z,4.94
2022-08-26T11:56:31.665Z,4.76
2022-08-26T11:59:04.444Z,4.71
2022-08-26T12:01:38.036Z,4.27
2022-08-26T12:04:12.854Z,4.67
2022-08-26T12:06:51.362Z,4.95
2022-08-26T12:09:30.329Z,4.30
2022-08-26T12:12:23.600Z,4.21
2022-08-26T12:15:10.707Z,4.18
2022-08-26T12:17:40.776Z,4.04
2022-08-26T12:20:48.475Z,4.91
2022-08-26T12:23:36.475Z,4.42
2022-08-26T12:26:20.014Z,5.13
2022-08-26T12:29:26.523Z,5.04
2022-08-26T12:32:14.712Z,5.65
2022-08-26T12:34:45.512Z,6.20
2022-08-26T12:37:15.584Z,5.90
2022-08-26T12:39:45.034Z,5.33
2022-08-26T12:42:15.994Z,5.53
2022-08-26T12:44:58.633Z,5.67
2022-08-26T12:47:44.304Z,6.41
2022-08-26T12:50:33.473Z,7.15
2022-08-26T12:53:17.822Z,6.83
2022-08-26T12:55:58.702Z,7.29
2022-08-26T12:58:38.838Z,8.06
2022-08-26T13:01:09.028Z,8.83
2022-08-26T13:03:38.778Z,10.15
2022-08-26T13:06:22.247Z,11.22
2022-08-26T13:08:52.804Z,11.76
2022-08-26T13:11:39.925Z,12.75
2022-08-26T13:14:24.048Z,13.54
2022-08-26T13:16:53.630Z,14.09
2022-08-26T13:19:29.214Z,14.87
2022-08-26T13:22:00.362Z,15.84
2022-08-26T13:24:42.094Z,15.42
2022-08-26T13:27:14.122Z,13.58
2022-08-26T13:29:42.307Z,12.48
2022-08-26T13:32:10.017Z,11.86
2022-08-26T13:34:38.850Z,11.18
2022-08-26T13:37:07.271Z,10.56
2022-08-26T13:39:34.708Z,10.67
2022-08-26T13:42:02.045Z,10.36
2022-08-26T13:44:29.693Z,10.19
2022-08-26T13:46:57.038Z,10.00
2022-08-26T13:49:24.291Z,9.66
2022-08-26T13:51:51.917Z,9.79
2022-08-26T13:54:19.343Z,8.91
2022-08-26T13:56:46.677Z,9.11
2022-08-26T13:59:15.102Z,8.99
2022-08-26T14:01:42.482Z,9.08
2022-08-26T14:04:09.870Z,8.49
2022-08-26T14:06:37.534Z,8.80
2022-08-26T14:09:05.396Z,8.61
2022-08-26T14:11:41.194Z,8.92
2022-08-26T14:14:18.586Z,8.55
2022-08-26T14:16:59.803Z,8.85
2022-08-26T14:19:30.127Z,9.31
2022-08-26T14:21:57.862Z,9.47
2022-08-26T14:24:25.172Z,9.81
2022-08-26T14:26:52.728Z,10.66
2022-08-26T14:29:20.330Z,12.47
2022-08-26T14:31:48.664Z,13.96
2022-08-26T14:34:16.471Z,15.26
2022-08-26T14:36:43.816Z,16.07
2022-08-26T14:39:14.435Z,17.29
2022-08-26T14:41:54.549Z,18.08
2022-08-26T14:44:31.290Z,18.91
2022-08-26T14:47:02.922Z,20.43
2022-08-26T14:49:31.859Z,20.80
2022-08-26T14:51:59.736Z,21.54
2022-08-26T14:54:28.971Z,22.11
2022-08-26T14:57:01.886Z,22.63
2022-08-26T14:59:36.378Z,22.78
2022-08-26T15:02:05.790Z,22.77
2022-08-26T15:04:34.152Z,23.13
2022-08-26T15:07:03.411Z,22.92
2022-08-26T15:09:35.275Z,23.19
2022-08-26T15:12:04.944Z,23.47
2022-08-26T15:14:33.149Z,23.42
2022-08-26T15:17:01.070Z,23.39
2022-08-26T15:19:30.367Z,24.48
2022-08-26T15:21:57.666Z,24.41
2022-08-26T15:24:26.782Z,24.74
2022-08-26T15:26:54.822Z,24.59
2022-08-26T15:29:24.260Z,25.09
2022-08-26T15:31:52.364Z,25.50
2022-08-26T15:34:24.673Z,25.01
2022-08-26T15:36:51.971Z,25.21
2022-08-26T15:39:20.067Z,25.88
2022-08-26T15:41:47.731Z,25.92
2022-08-26T15:44:17.111Z,25.84
2022-08-26T15:46:44.841Z,26.32
2022-08-26T15:49:16.978Z,26.60
2022-08-26T15:51:50.474Z,26.48
2022-08-26T15:54:23.438Z,27.05
2022-08-26T15:56:52.500Z,27.40
2022-08-26T15:59:21.886Z,27.81
2022-08-26T16:01:50.918Z,28.18
2022-08-26T16:04:18.796Z,28.06
2022-08-26T16:06:50.432Z,28.72
2022-08-26T16:09:26.992Z,28.30
2022-08-26T16:11:58.770Z,28.69
2022-08-26T16:14:26.692Z,28.82
2022-08-26T16:16:54.357Z,29.04
2022-08-26T16:19:22.435Z,29.72
2022-08-26T16:21:51.561Z,30.00
2022-08-26T16:24:28.366Z,30.27
2022-08-26T16:26:57.888Z,30.71
2022-08-26T16:29:25.419Z,31.08
2022-08-26T16:31:54.822Z,31.51
2022-08-26T16:34:22.872Z,31.57
2022-08-26T16:36:52.412Z,31.96
2022-08-26T16:39:20.268Z,32.15
2022-08-26T16:41:47.787Z,32.24
2022-08-26T16:44:16.638Z,32.79
2022-08-26T16:46:45.925Z,33.25
2022-08-26T16:49:14.315Z,33.36
2022-08-26T16:51:41.984Z,33.51
2022-08-26T16:54:09.760Z,34.16
2022-08-26T16:56:38.294Z,33.73
2022-08-26T16:59:11.639Z,34.22
2022-08-26T17:01:39.392Z,34.66
2022-08-26T17:04:06.989Z,34.96
2022-08-26T17:06:34.454Z,35.75
2022-08-26T17:09:02.461Z,35.19
2022-08-26T17:11:30.250Z,35.52
2022-08-26T17:13:57.783Z,35.86
2022-08-26T17:16:27.081Z,36.13
2022-08-26T17:18:57.788Z,36.28
2022-08-26T17:21:26.848Z,36.40
2022-08-26T17:23:55.306Z,36.81
2022-08-26T17:26:22.741Z,37.75
2022-08-26T17:28:51.341Z,38.06
2022-08-26T17:31:20.550Z,38.18
2022-08-26T17:33:53.542Z,38.24
2022-08-26T17:36:28.015Z,38.73
2022-08-26T17:38:57.892Z,38.58
2022-08-26T17:41:27.255Z,38.83
2022-08-26T17:43:55.198Z,38.72
2022-08-26T17:46:23.351Z,38.98
2022-08-26T17:48:51.432Z,39.26
2022-08-26T17:51:19.936Z,39.72
2022-08-26T17:53:48.798Z,39.34
2022-08-26T17:56:20.155Z,39.45
2022-08-26T17:58:51.136Z,39.87
2022-08-26T18:01:22.110Z,40.38
2022-08-26T18:03:50.756Z,41.02
2022-08-26T18:06:19.215Z,40.90
2022-08-26T18:08:47.461Z,41.60
2022-08-26T18:11:19.635Z,41.90
2022-08-26T18:13:47.921Z,41.85
2022-08-26T18:16:18.200Z,41.71
2022-08-26T18:18:48.151Z,42.14
2022-08-26T18:21:21.240Z,42.30
2022-08-26T18:23:51.053Z,42.09
2022-08-26T18:26:31.662Z,42.58
2022-08-26T18:28:59.951Z,42.64
2022-08-26T18:31:28.666Z,42.60
2022-08-26T18:33:57.293Z,42.54
2022-08-26T18:36:32.598Z,42.92
2022-08-26T18:39:00.903Z,43.11
2022-08-26T18:41:32.150Z,42.93
2022-08-26T18:44:00.136Z,43.39
2022-08-26T18:46:28.527Z,42.90
2022-08-26T18:48:57.584Z,43.00
2022-08-26T18:51:33.060Z,43.32
2022-08-26T18:54:04.590Z,43.05
2022-08-26T18:56:33.756Z,43.21
2022-08-26T18:59:02.131Z,43.28
2022-08-26T19:01:32.070Z,43.33
2022-08-26T19:04:03.124Z,43.51
2022-08-26T19:06:35.597Z,43.41
2022-08-26T19:09:07.034Z,43.68
2022-08-26T19:11:42.833Z,43.37
2022-08-26T19:14:16.284Z,43.53
2022-08-26T19:16:49.665Z,43.66
2022-08-26T19:19:17.455Z,43.99
2022-08-26T19:21:45.820Z,43.71
2022-08-26T19:24:17.647Z,43.58
2022-08-26T19:26:49.127Z,43.64
2022-08-26T19:29:28.384Z,43.86
2022-08-26T19:31:56.683Z,44.30
2022-08-26T19:34:24.640Z,44.03
2022-08-26T19:36:54.264Z,44.06
2022-08-26T19:39:21.972Z,44.08
2022-08-26T19:41:49.577Z,44.63
2022-08-26T19:44:38.547Z,44.48
2022-08-26T19:47:10.573Z,44.68
2022-08-26T19:49:38.857Z,44.70
2022-08-26T19:52:08.989Z,44.69
2022-08-26T19:54:37.782Z,44.65
2022-08-26T19:57:05.981Z,44.70
2022-08-26T19:59:33.279Z,44.81
2022-08-26T20:02:02.253Z,44.93
2022-08-26T20:04:33.645Z,45.01
2022-08-26T20:07:02.418Z,45.08
2022-08-26T20:09:32.772Z,45.43
2022-08-26T20:12:00.695Z,45.64
2022-08-26T20:14:28.687Z,45.43
2022-08-26T20:16:56.667Z,45.72
2022-08-26T20:19:42.818Z,45.76
2022-08-26T20:22:11.227Z,45.82
2022-08-26T20:24:38.684Z,45.98
2022-08-26T20:27:07.950Z,45.94
2022-08-26T20:29:37.300Z,45.78
2022-08-26T20:32:07.236Z,45.72
2022-08-26T20:34:36.733Z,46.00
2022-08-26T20:37:05.317Z,45.66
2022-08-26T20:39:32.733Z,45.71
2022-08-26T20:42:00.081Z,46.00
2022-08-26T20:44:27.790Z,46.46
2022-08-26T20:47:13.473Z,46.31
2022-08-26T20:49:41.239Z,46.83
2022-08-26T20:52:10.967Z,46.83
2022-08-26T20:54:38.481Z,47.24
2022-08-26T20:57:06.513Z,48.49
2022-08-26T20:59:34.200Z,50.07
2022-08-26T21:02:01.804Z,50.59
2022-08-26T21:04:29.364Z,50.52
2022-08-26T21:06:56.903Z,49.88
2022-08-26T21:09:27.442Z,49.57
2022-08-26T21:11:56.717Z,50.13
2022-08-26T21:14:25.863Z,49.63
2022-08-26T21:16:54.453Z,50.15
2022-08-26T21:19:22.326Z,50.52
2022-08-26T21:21:50.091Z,50.43
2022-08-26T21:24:18.247Z,51.41
2022-08-26T21:26:46.405Z,51.67
2022-08-26T21:29:14.640Z,51.27
2022-08-26T21:31:46.383Z,51.44
2022-08-26T21:34:19.554Z,51.93
2022-08-26T21:36:48.426Z,52.35
2022-08-26T21:39:17.181Z,52.81
2022-08-26T21:41:46.271Z,52.74
2022-08-26T21:44:16.804Z,52.68
2022-08-26T21:46:46.820Z,53.19
2022-08-26T21:49:16.269Z,54.44
2022-08-26T21:51:48.660Z,55.32
2022-08-26T21:54:18.192Z,55.82
2022-08-26T21:56:47.674Z,55.62
2022-08-26T21:59:18.750Z,55.93
2022-08-26T22:01:47.719Z,55.90
2022-08-26T22:04:16.291Z,56.39
2022-08-26T22:06:51.768Z,56.46
2022-08-26T22:09:27.892Z,56.77
2022-08-26T22:11:56.968Z,56.33
2022-08-26T22:14:30.392Z,56.42
2022-08-26T22:17:00.138Z,56.19
2022-08-26T22:19:28.217Z,55.57
2022-08-26T22:21:57.872Z,55.03
2022-08-26T22:24:27.352Z,55.34
2022-08-26T22:26:56.212Z,55.07
2022-08-26T22:29:25.266Z,54.89
2022-08-26T22:31:53.201Z,55.54
2022-08-26T22:34:23.042Z,55.16
2022-08-26T22:36:50.759Z,55.29
2022-08-26T22:39:24.786Z,55.12
2022-08-26T22:41:54.418Z,55.10
2022-08-26T22:44:23.419Z,55.27
2022-08-26T22:46:54.422Z,55.34
2022-08-26T22:49:22.557Z,55.02
2022-08-26T22:51:51.111Z,55.14
2022-08-26T22:54:18.405Z,55.08
2022-08-26T22:56:46.068Z,55.35
2022-08-26T22:59:13.622Z,55.44
2022-08-26T23:01:43.453Z,55.37
2022-08-26T23:04:12.053Z,55.19
2022-08-26T23:06:43.348Z,55.16
2022-08-26T23:09:18.602Z,55.35
2022-08-26T23:11:48.630Z,55.15
2022-08-26T23:14:19.170Z,55.47
2022-08-26T23:16:47.742Z,54.99
2022-08-26T23:19:18.429Z,55.09
2022-08-26T23:21:47.526Z,55.65
2022-08-26T23:24:15.832Z,55.56
2022-08-26T23:26:44.932Z,56.29
2022-08-26T23:29:15.726Z,56.28
2022-08-26T23:31:43.322Z,56.38
2022-08-26T23:34:30.281Z,57.15
2022-08-26T23:36:59.314Z,57.61
2022-08-26T23:39:28.976Z,58.47
2022-08-26T23:41:57.034Z,58.71
2022-08-26T23:44:26.717Z,58.24
2022-08-26T23:46:54.938Z,57.94
2022-08-26T23:49:22.626Z,57.77
2022-08-26T23:52:08.932Z,58.69
2022-08-26T23:54:37.406Z,59.34
2022-08-26T23:57:06.636Z,59.95
2022-08-26T23:59:34.468Z,60.16
